Time;durP1;ratioP1;P1;durP2;ratioP2;P2;SDS_P1;SDS_P2;PMS_P1;PMS_P2;Temp;Humidity;BMP_temperature;BMP_pressure;BME280_temperature;BME280_humidity;BME280_pressure;Samples;Min_cycle;Max_cycle;Signal;HPM_P1;HPM_P2
2022/03/30 00:00:56;;;;;;;5.97;5.00;;;10.90;86.20;;;;;;4977851;28;20901;-66
2022/03/30 00:03:22;;;;;;;9.40;6.57;;;10.90;86.30;;;;;;4977410;28;20619;-67
2022/03/30 00:05:48;;;;;;;10.77;6.43;;;10.90;86.30;;;;;;4977775;28;20207;-68
2022/03/30 00:08:14;;;;;;;9.77;7.00;;;10.90;86.40;;;;;;4978101;28;20403;-68
2022/03/30 00:10:39;;;;;;;9.13;8.23;;;10.90;86.70;;;;;;4977835;28;20255;-65
2022/03/30 00:13:05;;;;;;;9.40;6.30;;;10.90;86.80;;;;;;4977234;28;20207;-68
2022/03/30 00:15:31;;;;;;;7.13;6.23;;;10.90;86.80;;;;;;4977188;28;20290;-69
2022/03/30 00:17:57;;;;;;;10.27;6.67;;;10.90;86.90;;;;;;4977715;28;20177;-67
2022/03/30 00:20:23;;;;;;;6.93;5.97;;;10.90;87.20;;;;;;4977618;28;20648;-66
2022/03/30 00:22:48;;;;;;;6.53;5.90;;;10.90;87.30;;;;;;4977421;28;20399;-66
2022/03/30 00:25:15;;;;;;;8.50;6.90;;;10.90;87.30;;;;;;4977114;28;20439;-65
2022/03/30 00:27:43;;;;;;;7.35;5.65;;;10.90;87.00;;;;;;4976970;28;20180;-68
2022/03/30 00:30:11;;;;;;;15.35;8.18;;;10.90;87.20;;;;;;4977490;28;20278;-67
2022/03/30 00:32:37;;;;;;;10.45;5.80;;;10.90;87.80;;;;;;4977332;28;20179;-68
2022/03/30 00:35:03;;;;;;;11.15;7.18;;;10.90;87.80;;;;;;4976674;28;20287;-66
2022/03/30 00:37:29;;;;;;;14.95;7.30;;;10.90;87.90;;;;;;4976035;28;20180;-67
2022/03/30 00:39:55;;;;;;;8.40;6.40;;;10.80;88.40;;;;;;4977100;28;20250;-67
2022/03/30 00:42:22;;;;;;;8.83;6.33;;;10.80;88.80;;;;;;4976796;28;20253;-67
2022/03/30 00:44:49;;;;;;;14.25;8.02;;;10.80;90.00;;;;;;4976538;28;20211;-68
2022/03/30 00:47:16;;;;;;;10.07;7.40;;;10.70;90.80;;;;;;4977130;28;20563;-67
2022/03/30 00:49:42;;;;;;;8.20;6.40;;;10.70;91.30;;;;;;4976856;28;20176;-66
2022/03/30 00:52:09;;;;;;;8.60;6.60;;;10.60;91.50;;;;;;4980234;28;20183;-68
2022/03/30 00:54:36;;;;;;;7.75;6.95;;;10.60;91.50;;;;;;4979585;28;20443;-66
2022/03/30 00:57:02;;;;;;;8.35;7.28;;;10.60;92.00;;;;;;4976370;28;20218;-67
2022/03/30 00:59:28;;;;;;;11.40;9.80;;;10.60;92.10;;;;;;4977244;28;20204;-66
2022/03/30 01:01:54;;;;;;;8.73;7.15;;;10.60;92.20;;;;;;4976063;28;20507;-66
2022/03/30 01:04:20;;;;;;;9.27;6.68;;;10.60;92.40;;;;;;4976003;28;20180;-67
2022/03/30 01:06:45;;;;;;;9.20;6.27;;;10.60;92.40;;;;;;4976901;28;20168;-68
2022/03/30 01:09:11;;;;;;;7.97;6.63;;;10.50;92.30;;;;;;4976988;28;20179;-67
2022/03/30 01:11:37;;;;;;;6.60;5.73;;;10.50;92.20;;;;;;4976813;28;20498;-68
2022/03/30 01:14:04;;;;;;;6.25;5.45;;;10.60;92.20;;;;;;4976511;28;20172;-68
2022/03/30 01:16:30;;;;;;;7.60;5.30;;;10.60;92.20;;;;;;4977261;28;20204;-67
2022/03/30 01:19:06;;;;;;;9.20;6.40;;;10.60;92.20;;;;;;4977064;28;20227;-67
2022/03/30 01:21:33;;;;;;;9.48;6.93;;;10.70;92.20;;;;;;4957962;28;20423;-68
2022/03/30 01:23:58;;;;;;;6.28;5.63;;;10.70;92.40;;;;;;4957640;28;20165;-67
2022/03/30 01:26:25;;;;;;;7.90;5.87;;;10.70;92.30;;;;;;4957175;29;20192;-68
2022/03/30 01:28:51;;;;;;;10.98;7.82;;;10.70;92.70;;;;;;4957227;28;20263;-67
2022/03/30 01:34:02;;;;;;;7.25;6.03;;;10.70;92.90;;;;;;4961735;28;20175;-66
2022/03/30 01:36:28;;;;;;;10.10;7.63;;;10.80;93.30;;;;;;4975589;28;20211;-68
2022/03/30 01:38:53;;;;;;;9.13;8.00;;;10.80;93.80;;;;;;4976784;28;20219;-67
2022/03/30 01:41:19;;;;;;;11.27;7.50;;;10.80;94.40;;;;;;4976076;28;20665;-68
2022/03/30 01:43:44;;;;;;;12.33;8.17;;;10.90;94.40;;;;;;4975705;28;20180;-67
2022/03/30 01:46:10;;;;;;;8.83;7.10;;;10.90;94.60;;;;;;4976084;28;20189;-67
2022/03/30 01:48:36;;;;;;;8.93;8.00;;;10.90;94.60;;;;;;4975808;28;20180;-67
2022/03/30 01:51:01;;;;;;;9.10;6.93;;;11.00;94.70;;;;;;4976045;28;20172;-67
2022/03/30 01:53:27;;;;;;;9.20;7.73;;;11.00;95.00;;;;;;4975433;28;20200;-69
2022/03/30 01:55:53;;;;;;;8.80;7.70;;;11.00;95.10;;;;;;4975834;28;20258;-66
2022/03/30 01:58:19;;;;;;;9.47;7.80;;;11.00;95.40;;;;;;4975490;28;20555;-69
2022/03/30 02:00:45;;;;;;;13.40;9.13;;;11.00;95.60;;;;;;4975819;28;20243;-68
2022/03/30 02:03:12;;;;;;;11.05;7.22;;;11.00;96.30;;;;;;4975244;28;20416;-66
2022/03/30 02:05:38;;;;;;;9.68;8.70;;;11.00;96.40;;;;;;4975515;28;20191;-68
2022/03/30 02:08:04;;;;;;;12.90;8.52;;;11.00;96.80;;;;;;4975544;28;20184;-66
2022/03/30 02:10:31;;;;;;;14.00;8.27;;;11.00;97.30;;;;;;4975589;28;20164;-67
2022/03/30 02:12:58;;;;;;;9.23;8.23;;;11.00;97.30;;;;;;4974160;28;20271;-66
2022/03/30 02:15:24;;;;;;;9.07;7.38;;;11.00;97.30;;;;;;4974877;28;20194;-67
2022/03/30 02:17:50;;;;;;;11.88;7.65;;;11.00;97.40;;;;;;4975644;28;20196;-67
2022/03/30 02:20:16;;;;;;;11.57;7.93;;;10.90;97.60;;;;;;4975532;28;20455;-67
2022/03/30 02:22:42;;;;;;;14.10;7.83;;;10.80;97.80;;;;;;4975570;28;20412;-68
2022/03/30 02:25:09;;;;;;;7.70;6.73;;;10.80;98.50;;;;;;4974903;28;20195;-67
2022/03/30 02:27:35;;;;;;;11.07;8.48;;;10.80;98.70;;;;;;4975287;28;20411;-67
2022/03/30 02:30:02;;;;;;;11.00;8.10;;;10.80;97.80;;;;;;4974721;28;20543;-67
2022/03/30 02:32:28;;;;;;;11.32;7.72;;;10.80;97.30;;;;;;4975044;28;20172;-67
2022/03/30 02:34:54;;;;;;;10.07;6.07;;;10.70;97.10;;;;;;4974557;28;20216;-66
2022/03/30 02:37:20;;;;;;;10.88;9.77;;;10.70;97.30;;;;;;4975124;28;20171;-66
2022/03/30 02:39:46;;;;;;;11.30;8.40;;;10.70;97.40;;;;;;4973720;28;20294;-67
2022/03/30 02:42:12;;;;;;;10.20;7.93;;;10.60;97.40;;;;;;4975011;28;20176;-66
2022/03/30 02:44:38;;;;;;;10.60;7.38;;;10.40;97.50;;;;;;4973134;28;20203;-67
2022/03/30 02:47:05;;;;;;;10.03;7.53;;;10.50;97.30;;;;;;4975051;28;20588;-67
2022/03/30 02:49:30;;;;;;;8.18;6.28;;;10.40;97.40;;;;;;4974764;28;20172;-66
2022/03/30 02:51:56;;;;;;;15.07;8.17;;;10.40;97.70;;;;;;4975026;28;20172;-66
2022/03/30 02:54:24;;;;;;;7.63;6.30;;;10.40;97.50;;;;;;4974471;28;20176;-66
2022/03/30 02:56:50;;;;;;;8.07;6.32;;;10.40;97.30;;;;;;4974698;28;20167;-68
2022/03/30 02:59:15;;;;;;;7.70;6.83;;;10.30;97.10;;;;;;4974573;28;20246;-67
2022/03/30 03:01:41;;;;;;;8.50;7.70;;;10.40;97.20;;;;;;4974864;28;20172;-67
2022/03/30 03:04:07;;;;;;;10.73;6.77;;;10.40;97.10;;;;;;4974248;28;20172;-66
2022/03/30 03:06:32;;;;;;;8.13;7.40;;;10.40;97.00;;;;;;4974563;28;20234;-66
2022/03/30 03:08:58;;;;;;;11.47;7.87;;;10.40;97.00;;;;;;4974719;28;20179;-67
2022/03/30 03:11:24;;;;;;;7.20;6.50;;;10.40;97.10;;;;;;4974974;28;20190;-66
2022/03/30 03:13:51;;;;;;;7.68;6.72;;;10.40;97.10;;;;;;4974040;28;20445;-67
2022/03/30 03:16:18;;;;;;;8.02;6.65;;;10.40;97.20;;;;;;4974581;28;20204;-67
2022/03/30 03:18:44;;;;;;;8.75;7.85;;;10.40;97.20;;;;;;4974636;28;20199;-67
2022/03/30 03:21:09;;;;;;;9.07;7.17;;;10.50;97.30;;;;;;4975095;28;20164;-67
2022/03/30 03:23:35;;;;;;;11.00;9.00;;;10.50;97.30;;;;;;4972843;28;20419;-67
2022/03/30 03:26:00;;;;;;;10.57;8.90;;;10.50;97.00;;;;;;4978604;28;20184;-67
2022/03/30 03:28:26;;;;;;;9.67;7.73;;;10.60;96.90;;;;;;4979292;28;20726;-65
2022/03/30 03:30:52;;;;;;;9.83;8.90;;;10.60;96.90;;;;;;4980165;28;20197;-66
2022/03/30 03:33:18;;;;;;;8.70;6.47;;;10.60;96.90;;;;;;4980471;28;20630;-67
2022/03/30 03:35:44;;;;;;;7.60;6.90;;;10.60;97.00;;;;;;4979358;28;20222;-67
2022/03/30 03:38:10;;;;;;;12.85;8.13;;;10.60;97.50;;;;;;4980809;28;20761;-66
2022/03/30 03:40:37;;;;;;;14.75;9.40;;;10.50;98.20;;;;;;4980750;28;20200;-67
2022/03/30 03:43:04;;;;;;;13.25;8.77;;;10.40;98.80;;;;;;4980298;28;20211;-68
2022/03/30 03:45:30;;;;;;;12.77;9.30;;;10.40;99.40;;;;;;4979520;28;20188;-67
2022/03/30 03:47:56;;;;;;;12.32;9.13;;;10.30;99.80;;;;;;4981124;28;20191;-66
2022/03/30 03:50:22;;;;;;;10.77;8.77;;;10.30;99.90;;;;;;4980674;28;20255;-67
2022/03/30 03:52:48;;;;;;;11.90;8.20;;;10.30;99.90;;;;;;4979340;28;20335;-67
2022/03/30 03:55:14;;;;;;;9.13;7.00;;;10.20;99.90;;;;;;4980412;28;20196;-67
2022/03/30 03:57:41;;;;;;;10.93;9.40;;;10.20;99.90;;;;;;4980319;28;20520;-66
2022/03/30 04:00:11;;;;;;;9.05;7.90;;;10.20;99.70;;;;;;4980639;28;20199;-65
2022/03/30 04:02:36;;;;;;;11.35;9.75;;;10.30;99.50;;;;;;4979159;28;20176;-68
2022/03/30 04:05:02;;;;;;;15.00;11.37;;;10.30;99.60;;;;;;4978896;28;20287;-67
2022/03/30 04:07:28;;;;;;;17.02;10.52;;;10.30;99.30;;;;;;4980870;28;20222;-67
2022/03/30 04:09:54;;;;;;;19.07;12.00;;;10.30;99.20;;;;;;4980638;28;20171;-66
2022/03/30 04:12:20;;;;;;;15.70;12.85;;;10.40;99.20;;;;;;4979968;28;20550;-68
2022/03/30 04:14:47;;;;;;;26.35;18.15;;;10.30;99.40;;;;;;4979879;28;20278;-66
2022/03/30 04:17:13;;;;;;;22.45;15.00;;;10.40;99.30;;;;;;4980117;28;20191;-66
2022/03/30 04:19:39;;;;;;;23.17;13.27;;;10.30;99.40;;;;;;4979939;28;20563;-67
2022/03/30 04:22:04;;;;;;;19.83;13.33;;;10.30;99.80;;;;;;4980682;28;20179;-67
2022/03/30 04:24:30;;;;;;;20.70;11.53;;;10.20;99.90;;;;;;4980219;28;20176;-68
2022/03/30 04:26:56;;;;;;;15.63;11.50;;;10.10;99.90;;;;;;4978851;28;20502;-65
2022/03/30 04:29:21;;;;;;;20.97;13.20;;;10.10;99.90;;;;;;4980566;28;20619;-67
2022/03/30 04:31:47;;;;;;;18.10;12.17;;;10.00;99.90;;;;;;4979958;28;20508;-66
2022/03/30 04:34:15;;;;;;;18.93;12.73;;;10.00;99.90;;;;;;4979996;28;20180;-68
2022/03/30 04:36:41;;;;;;;25.95;15.25;;;10.00;99.90;;;;;;4977725;28;20229;-66
2022/03/30 04:39:07;;;;;;;17.47;13.70;;;9.90;99.90;;;;;;4977129;28;20570;-66
2022/03/30 04:41:32;;;;;;;18.00;13.03;;;9.90;99.90;;;;;;4977280;28;20172;-67
2022/03/30 04:43:58;;;;;;;20.10;13.93;;;9.90;99.90;;;;;;4976630;28;20180;-67
2022/03/30 04:46:24;;;;;;;16.63;12.43;;;9.90;99.90;;;;;;4976798;28;20547;-68
2022/03/30 04:48:49;;;;;;;20.97;13.53;;;9.90;99.90;;;;;;4977190;28;20623;-69
2022/03/30 04:51:15;;;;;;;39.53;19.73;;;9.90;99.90;;;;;;4977310;28;20591;-67
2022/03/30 04:53:41;;;;;;;25.60;17.00;;;10.00;99.90;;;;;;4976684;28;20195;-68
2022/03/30 04:56:06;;;;;;;32.13;19.33;;;9.90;99.90;;;;;;4976883;28;20195;-68
2022/03/30 04:58:32;;;;;;;24.57;13.20;;;9.90;99.90;;;;;;4976704;28;20198;-66
2022/03/30 05:00:58;;;;;;;15.33;11.53;;;9.80;99.90;;;;;;4976807;28;20180;-68
2022/03/30 05:03:23;;;;;;;20.53;11.03;;;9.80;99.90;;;;;;4975203;28;20176;-65
2022/03/30 05:05:49;;;;;;;14.50;10.10;;;9.80;99.90;;;;;;4977030;28;20192;-66
2022/03/30 05:08:15;;;;;;;13.40;10.30;;;9.70;99.90;;;;;;4976073;28;20176;-66
2022/03/30 05:10:41;;;;;;;13.20;10.87;;;9.70;99.90;;;;;;4976256;28;20172;-66
2022/03/30 05:13:07;;;;;;;14.38;9.07;;;9.60;99.90;;;;;;4975840;28;20243;-68
2022/03/30 05:15:32;;;;;;;15.60;9.93;;;9.60;99.90;;;;;;4976534;28;20184;-67
2022/03/30 05:18:00;;;;;;;17.20;11.77;;;9.50;99.90;;;;;;4975831;28;20666;-66
2022/03/30 05:20:26;;;;;;;15.40;11.52;;;9.40;99.90;;;;;;4974871;28;20698;-66
2022/03/30 05:22:51;;;;;;;22.20;12.60;;;9.40;99.90;;;;;;4976076;28;20175;-66
2022/03/30 05:25:19;;;;;;;16.50;11.37;;;9.30;99.90;;;;;;4975744;28;20204;-68
2022/03/30 05:27:45;;;;;;;16.02;10.50;;;9.30;99.90;;;;;;4970404;28;20271;-68
2022/03/30 05:30:12;;;;;;;13.00;10.83;;;9.30;99.90;;;;;;4975881;28;20262;-67
2022/03/30 05:32:37;;;;;;;23.92;12.75;;;9.30;99.90;;;;;;4975255;28;20426;-67
2022/03/30 05:35:04;;;;;;;19.30;12.20;;;9.30;99.90;;;;;;4975760;28;20207;-67
2022/03/30 05:37:31;;;;;;;19.48;13.77;;;9.30;99.90;;;;;;4976030;28;20176;-67
2022/03/30 05:39:57;;;;;;;22.13;14.52;;;9.30;99.90;;;;;;4974213;28;20210;-67
2022/03/30 05:42:22;;;;;;;20.50;14.55;;;9.30;99.90;;;;;;4975520;28;20203;-67
2022/03/30 05:44:49;;;;;;;22.43;15.17;;;9.30;99.90;;;;;;4975503;28;20195;-68
2022/03/30 05:47:16;;;;;;;18.48;12.70;;;9.30;99.90;;;;;;4975634;28;20172;-68
2022/03/30 05:49:42;;;;;;;18.20;11.88;;;9.30;99.90;;;;;;4974896;28;20171;-68
2022/03/30 05:52:08;;;;;;;18.92;11.93;;;9.30;99.90;;;;;;4973413;28;20180;-70
2022/03/30 05:54:35;;;;;;;19.70;12.50;;;9.30;99.90;;;;;;4974509;28;20215;-68
2022/03/30 05:57:01;;;;;;;13.73;10.20;;;9.40;99.90;;;;;;4974680;28;20172;-67
2022/03/30 05:59:31;;;;;;;20.33;12.10;;;9.40;99.90;;;;;;4975784;28;20204;-68
2022/03/30 06:01:57;;;;;;;15.48;11.15;;;9.30;99.90;;;;;;4974151;28;20187;-68
2022/03/30 06:04:23;;;;;;;16.20;11.27;;;9.30;99.90;;;;;;4974108;28;20559;-67
2022/03/30 06:06:52;;;;;;;25.15;12.10;;;9.30;99.90;;;;;;4973977;28;20207;-67
2022/03/30 06:09:18;;;;;;;23.20;15.70;;;9.30;99.90;;;;;;4974512;28;20191;-67
2022/03/30 06:11:44;;;;;;;28.00;15.70;;;9.30;99.90;;;;;;4975007;28;20175;-67
2022/03/30 06:14:10;;;;;;;26.33;16.00;;;9.30;99.90;;;;;;4974848;28;20498;-67
2022/03/30 06:16:36;;;;;;;22.47;14.53;;;9.40;99.90;;;;;;4975297;28;20346;-68
2022/03/30 06:19:02;;;;;;;17.13;13.85;;;9.40;99.90;;;;;;4975173;28;20655;-67
2022/03/30 06:21:31;;;;;;;19.17;12.97;;;9.30;99.90;;;;;;4974061;28;20183;-67
2022/03/30 06:23:58;;;;;;;23.58;15.90;;;9.40;99.90;;;;;;4974995;28;20415;-67
2022/03/30 06:26:25;;;;;;;22.55;13.27;;;9.30;99.90;;;;;;4975235;28;20195;-67
2022/03/30 06:28:51;;;;;;;14.23;11.55;;;9.30;99.90;;;;;;4975219;28;20172;-67
2022/03/30 06:31:17;;;;;;;22.40;12.23;;;9.30;99.90;;;;;;4975249;28;20582;-69
2022/03/30 06:33:47;;;;;;;11.82;10.02;;;9.30;99.90;;;;;;4974459;28;20180;-66
2022/03/30 06:36:13;;;;;;;17.75;13.75;;;9.30;99.90;;;;;;4972121;28;20310;-66
2022/03/30 06:38:39;;;;;;;22.38;14.70;;;9.30;99.90;;;;;;4975002;28;20176;-66
2022/03/30 06:41:07;;;;;;;23.98;18.75;;;9.30;99.90;;;;;;4974683;28;20172;-65
2022/03/30 06:43:33;;;;;;;37.58;18.67;;;9.40;99.90;;;;;;4974502;28;20190;-66
2022/03/30 06:45:59;;;;;;;28.20;19.50;;;9.40;99.90;;;;;;4974486;28;20192;-65
2022/03/30 06:48:24;;;;;;;21.60;13.03;;;9.40;99.90;;;;;;4974605;28;20262;-64
2022/03/30 06:50:50;;;;;;;19.43;12.97;;;9.40;99.90;;;;;;4974754;28;20207;-65
2022/03/30 06:53:16;;;;;;;21.07;13.30;;;9.30;99.90;;;;;;4972955;28;20184;-64
2022/03/30 06:55:41;;;;;;;16.80;12.50;;;9.30;99.90;;;;;;4974227;28;20200;-64
2022/03/30 06:58:07;;;;;;;19.53;13.23;;;9.20;99.90;;;;;;4974633;28;20259;-65
2022/03/30 07:00:33;;;;;;;17.37;13.17;;;9.20;99.90;;;;;;4974071;28;20199;-66
2022/03/30 07:02:59;;;;;;;20.27;12.80;;;9.20;99.90;;;;;;4974533;28;20176;-66
2022/03/30 07:05:24;;;;;;;22.73;13.30;;;9.20;99.90;;;;;;4978851;28;20796;-65
2022/03/30 07:10:35;;;;;;;12.68;11.38;;;9.20;99.90;;;;;;4981951;28;20190;-64
2022/03/30 07:13:03;;;;;;;24.08;14.68;;;9.20;99.90;;;;;;4974278;28;20538;-65
2022/03/30 07:15:30;;;;;;;22.10;11.13;;;9.20;99.90;;;;;;4974193;28;20192;-65
2022/03/30 07:17:58;;;;;;;17.90;12.90;;;9.20;99.90;;;;;;4974454;28;20172;-66
2022/03/30 07:20:26;;;;;;;15.25;10.85;;;9.20;99.90;;;;;;4974328;28;20209;-65
2022/03/30 07:22:52;;;;;;;13.75;11.70;;;9.20;99.90;;;;;;4974260;28;20255;-65
2022/03/30 07:25:19;;;;;;;19.90;12.73;;;9.20;99.90;;;;;;4973670;28;20219;-64
2022/03/30 07:27:51;;;;;;;18.38;11.90;;;9.30;99.90;;;;;;4974416;28;20256;-65
2022/03/30 07:30:19;;;;;;;13.32;10.68;;;9.20;99.90;;;;;;4974294;28;20694;-64
2022/03/30 07:32:47;;;;;;;16.08;11.75;;;9.20;99.90;;;;;;4974188;28;20565;-66
2022/03/30 07:35:15;;;;;;;15.10;11.45;;;9.20;99.90;;;;;;4973884;28;20575;-64
2022/03/30 07:37:41;;;;;;;14.15;9.30;;;9.20;99.90;;;;;;4974334;28;20259;-64
2022/03/30 07:40:08;;;;;;;17.70;10.90;;;9.30;99.90;;;;;;4973941;28;20207;-64
2022/03/30 07:42:34;;;;;;;13.95;10.07;;;9.30;99.90;;;;;;4974238;28;20187;-67
2022/03/30 07:45:00;;;;;;;14.40;11.50;;;9.30;99.90;;;;;;4973765;28;20219;-65
2022/03/30 07:47:26;;;;;;;14.40;10.37;;;9.40;99.90;;;;;;4973991;28;20724;-65
2022/03/30 07:49:52;;;;;;;15.77;11.00;;;9.50;99.90;;;;;;4974088;28;20571;-65
2022/03/30 07:52:20;;;;;;;16.48;12.73;;;9.50;99.90;;;;;;4974069;28;20168;-65
2022/03/30 07:54:50;;;;;;;17.17;12.55;;;9.60;99.90;;;;;;4971800;28;20294;-64
2022/03/30 07:57:16;;;;;;;20.33;11.25;;;9.60;99.90;;;;;;4975854;28;20180;-66
2022/03/30 07:59:42;;;;;;;20.20;12.37;;;9.60;99.90;;;;;;4990485;28;20234;-63
2022/03/30 08:02:08;;;;;;;16.33;11.15;;;9.60;99.90;;;;;;4993359;28;20619;-63
2022/03/30 08:04:34;;;;;;;29.20;18.80;;;9.70;99.90;;;;;;4976483;28;20211;-65
2022/03/30 08:06:59;;;;;;;46.33;29.00;;;9.70;99.90;;;;;;4972829;28;20176;-65
2022/03/30 08:09:25;;;;;;;110.20;58.33;;;9.70;99.90;;;;;;4973824;28;20255;-64
2022/03/30 08:11:52;;;;;;;69.63;43.17;;;9.70;99.90;;;;;;4975658;28;20666;-64
2022/03/30 08:14:18;;;;;;;77.18;39.15;;;9.70;99.90;;;;;;4977017;28;20255;-65
2022/03/30 08:16:44;;;;;;;51.83;32.77;;;9.70;99.90;;;;;;4977310;28;20258;-65
2022/03/30 08:19:10;;;;;;;62.07;33.37;;;9.80;99.90;;;;;;4977305;28;20457;-63
2022/03/30 08:24:21;;;;;;;30.35;23.48;;;9.90;99.90;;;;;;4976394;28;20187;-68
2022/03/30 08:26:47;;;;;;;40.40;21.00;;;9.90;99.90;;;;;;4977159;28;20171;-62
2022/03/30 08:29:14;;;;;;;25.58;15.68;;;10.00;99.90;;;;;;4970941;28;20571;-62
2022/03/30 08:31:40;;;;;;;19.70;14.93;;;10.10;99.90;;;;;;4977169;28;20172;-64
2022/03/30 08:34:05;;;;;;;25.47;15.67;;;10.20;99.90;;;;;;4976816;28;20178;-65
2022/03/30 08:36:31;;;;;;;28.33;20.57;;;10.20;99.90;;;;;;4976557;28;20658;-66
2022/03/30 08:38:58;;;;;;;38.97;24.85;;;10.30;99.90;;;;;;4976744;28;20695;-63
2022/03/30 08:41:24;;;;;;;30.35;25.40;;;10.40;99.90;;;;;;4977027;28;20263;-63
2022/03/30 08:43:50;;;;;;;32.80;22.70;;;10.40;99.90;;;;;;4975465;28;20259;-63
2022/03/30 08:46:15;;;;;;;27.30;18.10;;;10.50;99.90;;;;;;4976847;28;20446;-65
2022/03/30 08:48:42;;;;;;;21.17;15.07;;;10.60;99.90;;;;;;4977194;28;20584;-61
2022/03/30 08:51:08;;;;;;;16.92;14.65;;;10.60;99.90;;;;;;4976831;28;20626;-64
2022/03/30 08:53:34;;;;;;;15.68;11.18;;;10.70;99.90;;;;;;4995195;28;20175;-63
2022/03/30 08:56:00;;;;;;;17.50;10.83;;;10.80;99.90;;;;;;4995811;28;20581;-64
2022/03/30 08:58:27;;;;;;;12.02;10.02;;;10.80;99.90;;;;;;4996090;28;20190;-64
2022/03/30 09:00:53;;;;;;;13.25;9.55;;;10.80;99.90;;;;;;4996118;28;20665;-65
2022/03/30 09:03:20;;;;;;;13.57;9.32;;;10.80;99.90;;;;;;4995950;28;20183;-65
2022/03/30 09:05:46;;;;;;;14.35;9.73;;;10.90;99.90;;;;;;4996054;28;20195;-63
2022/03/30 09:08:25;;;;;;;15.70;10.30;;;11.00;99.90;;;;;;4977120;28;20219;-64
2022/03/30 09:10:52;;;;;;;10.95;7.95;;;10.90;99.90;;;;;;4976653;28;20864;-62
2022/03/30 09:13:18;;;;;;;21.20;10.93;;;10.90;99.90;;;;;;4976296;28;20547;-63
2022/03/30 09:15:45;;;;;;;11.68;8.40;;;11.00;99.90;;;;;;4976543;28;20219;-65
2022/03/30 09:18:14;;;;;;;19.63;11.52;;;11.00;99.90;;;;;;4976594;28;20199;-64
2022/03/30 09:20:42;;;;;;;11.63;8.95;;;11.10;99.90;;;;;;4976243;28;20208;-63
2022/03/30 09:23:10;;;;;;;15.18;9.50;;;11.20;99.90;;;;;;4956055;28;20169;-62
2022/03/30 09:25:36;;;;;;;18.05;9.82;;;11.20;99.90;;;;;;4956974;28;20189;-64
2022/03/30 09:28:03;;;;;;;10.83;7.93;;;11.20;99.90;;;;;;4956958;29;20664;-63
2022/03/30 09:30:29;;;;;;;11.57;7.90;;;11.20;99.90;;;;;;4956932;29;20598;-63
2022/03/30 09:32:57;;;;;;;14.95;9.13;;;11.20;99.90;;;;;;4956929;29;20211;-62
2022/03/30 09:35:24;;;;;;;21.05;9.77;;;11.10;99.90;;;;;;4956397;28;20211;-65
2022/03/30 09:38:11;;;;;;;10.85;7.90;;;11.20;99.90;;;;;;4975885;28;20226;-67
2022/03/30 09:40:56;;;;;;;17.05;11.13;;;11.10;99.90;;;;;;4994324;28;20262;-66
2022/03/30 09:43:37;;;;;;;25.15;16.92;;;11.10;99.90;;;;;;4988571;28;20176;-65
2022/03/30 09:46:06;;;;;;;19.08;9.35;;;11.10;99.90;;;;;;4979889;28;20194;-65
2022/03/30 09:48:35;;;;;;;9.20;7.90;;;11.10;99.90;;;;;;4976008;28;20171;-65
2022/03/30 09:51:03;;;;;;;13.75;9.48;;;11.10;99.90;;;;;;4980944;28;20500;-63
2022/03/30 09:53:30;;;;;;;13.48;8.50;;;11.20;99.90;;;;;;4994588;28;20179;-64
2022/03/30 09:56:19;;;;;;;13.50;8.88;;;11.30;99.90;;;;;;4993175;28;20565;-65
2022/03/30 09:58:46;;;;;;;12.63;8.82;;;11.30;99.90;;;;;;4995038;28;20229;-63
2022/03/30 10:01:21;;;;;;;10.00;5.85;;;11.30;99.90;;;;;;4982138;28;20646;-64
2022/03/30 10:04:08;;;;;;;14.23;6.93;;;11.40;99.90;;;;;;4975302;28;20191;-64
2022/03/30 10:06:36;;;;;;;10.10;5.95;;;11.40;99.90;;;;;;4993795;28;20662;-64
2022/03/30 10:09:02;;;;;;;8.38;6.45;;;11.50;99.90;;;;;;4994643;28;20203;-65
2022/03/30 10:11:29;;;;;;;11.10;7.10;;;11.50;99.90;;;;;;4977473;28;20190;-65
2022/03/30 10:14:08;;;;;;;11.98;6.40;;;11.50;99.90;;;;;;4975257;28;20591;-65
2022/03/30 10:16:33;;;;;;;12.82;6.30;;;11.60;99.90;;;;;;4988364;28;20226;-66
2022/03/30 10:18:59;;;;;;;13.73;7.70;;;11.70;99.90;;;;;;4994889;28;20238;-65
2022/03/30 10:21:46;;;;;;;9.10;7.60;;;11.70;99.90;;;;;;4982337;28;20711;-66
2022/03/30 10:24:51;;;;;;;9.52;6.13;;;11.80;99.90;;;;;;4955920;29;20165;-65
2022/03/30 10:27:47;;;;;;;9.43;5.75;;;11.80;99.90;;;;;;4956824;28;20188;-64
2022/03/30 10:30:13;;;;;;;9.00;6.07;;;11.80;99.90;;;;;;4987816;28;20536;-64
2022/03/30 10:32:40;;;;;;;6.33;5.73;;;11.80;99.90;;;;;;4975487;28;20182;-64
2022/03/30 10:35:11;;;;;;;9.63;6.10;;;11.90;99.90;;;;;;4973630;28;20453;-66
2022/03/30 10:37:55;;;;;;;8.00;6.00;;;11.90;99.90;;;;;;4987171;28;20508;-62
2022/03/30 10:40:25;;;;;;;8.25;5.78;;;11.90;99.90;;;;;;4994630;28;20450;-65
2022/03/30 10:42:54;;;;;;;6.00;5.03;;;11.90;99.90;;;;;;4992707;28;20305;-67
2022/03/30 10:45:28;;;;;;;9.73;6.23;;;12.00;99.90;;;;;;4984092;28;20438;-68
2022/03/30 10:48:28;;;;;;;9.37;6.17;;;12.10;99.90;;;;;;4974654;28;20468;-65
2022/03/30 10:50:54;;;;;;;9.20;6.47;;;12.20;99.90;;;;;;4975670;28;20474;-64
2022/03/30 10:56:24;;;;;;;9.73;6.40;;;12.20;99.90;;;;;;4983951;28;20440;-66
2022/03/30 10:58:53;;;;;;;9.27;6.33;;;12.20;99.90;;;;;;4990212;28;20433;-64
2022/03/30 11:01:26;;;;;;;7.63;6.20;;;12.20;99.90;;;;;;4972326;28;20447;-65
2022/03/30 11:03:59;;;;;;;7.00;6.30;;;12.30;99.90;;;;;;4973775;28;20921;-65
2022/03/30 11:06:26;;;;;;;8.53;5.03;;;12.60;99.90;;;;;;4974370;28;20772;-62
2022/03/30 11:08:51;;;;;;;7.90;6.40;;;13.00;99.90;;;;;;4974365;28;20415;-66
2022/03/30 11:11:25;;;;;;;8.37;6.10;;;13.40;99.90;;;;;;4974460;28;20798;-66
2022/03/30 11:14:28;;;;;;;8.90;6.00;;;13.80;99.90;;;;;;4974090;28;20200;-64
2022/03/30 11:16:57;;;;;;;7.87;5.10;;;13.90;99.90;;;;;;4974706;28;20410;-65
2022/03/30 11:19:29;;;;;;;8.17;5.83;;;13.80;99.90;;;;;;4974344;28;20466;-64
2022/03/30 11:22:12;;;;;;;12.03;6.00;;;13.80;99.90;;;;;;4973099;28;20422;-65
2022/03/30 11:24:43;;;;;;;7.93;6.37;;;13.70;99.90;;;;;;4971209;28;20405;-63
2022/03/30 11:27:09;;;;;;;10.30;7.00;;;13.70;99.90;;;;;;4974493;28;20762;-64
2022/03/30 11:29:52;;;;;;;8.17;6.07;;;13.70;99.90;;;;;;4974450;28;20497;-65
2022/03/30 11:32:24;;;;;;;8.07;5.53;;;13.50;99.90;;;;;;4974336;28;20266;-66
2022/03/30 11:34:52;;;;;;;7.97;6.20;;;13.40;99.90;;;;;;4973795;28;20454;-66
2022/03/30 11:37:19;;;;;;;8.47;6.60;;;13.30;99.90;;;;;;4973972;28;20933;-67
2022/03/30 11:39:46;;;;;;;6.00;5.07;;;13.00;99.90;;;;;;4974175;28;20456;-65
2022/03/30 11:42:14;;;;;;;8.73;7.00;;;12.90;99.90;;;;;;4974468;28;20864;-65
2022/03/30 11:47:25;;;;;;;15.10;6.07;;;12.70;99.90;;;;;;4977079;28;20409;-64
2022/03/30 11:49:53;;;;;;;6.97;4.37;;;12.60;99.90;;;;;;4978390;28;20418;-65
2022/03/30 11:52:22;;;;;;;9.80;6.50;;;12.50;99.90;;;;;;4977921;28;20429;-65
2022/03/30 11:54:49;;;;;;;6.97;5.07;;;12.40;99.90;;;;;;4977377;28;20457;-62
2022/03/30 11:57:17;;;;;;;6.10;5.33;;;12.50;99.90;;;;;;4977350;28;20502;-63
2022/03/30 11:59:43;;;;;;;5.50;4.70;;;12.50;99.90;;;;;;4977917;28;20816;-63
2022/03/30 12:02:08;;;;;;;8.10;4.53;;;12.70;99.90;;;;;;4977549;28;20422;-65
2022/03/30 12:04:34;;;;;;;5.77;4.93;;;12.80;99.90;;;;;;4977456;28;20786;-64
2022/03/30 12:07:00;;;;;;;6.03;4.70;;;12.90;99.90;;;;;;4977853;28;20191;-65
2022/03/30 12:09:26;;;;;;;5.10;4.60;;;12.90;99.90;;;;;;4977960;28;20410;-66
2022/03/30 12:11:52;;;;;;;7.50;4.47;;;13.00;99.90;;;;;;4977814;28;20916;-66
2022/03/30 12:14:27;;;;;;;9.40;5.20;;;13.00;99.90;;;;;;4977464;28;20191;-67
2022/03/30 12:16:53;;;;;;;13.10;5.50;;;13.00;99.90;;;;;;4977074;28;20183;-68
2022/03/30 12:19:19;;;;;;;5.03;4.30;;;13.00;99.90;;;;;;4983850;28;20971;-67
2022/03/30 12:21:45;;;;;;;7.80;5.17;;;12.90;99.90;;;;;;4987355;28;20558;-67
2022/03/30 12:24:12;;;;;;;7.13;5.40;;;12.80;99.90;;;;;;4977255;28;20546;-72
2022/03/30 12:26:38;;;;;;;7.13;6.43;;;12.80;99.90;;;;;;4994655;28;20448;-72
2022/03/30 12:29:09;;;;;;;6.40;5.90;;;12.90;99.90;;;;;;4976071;28;20418;-68
2022/03/30 12:31:47;;;;;;;10.57;6.60;;;12.90;99.90;;;;;;4983996;28;20575;-66
2022/03/30 12:34:17;;;;;;;10.70;6.87;;;12.80;99.90;;;;;;4996162;28;20413;-66
2022/03/30 12:36:44;;;;;;;5.73;5.07;;;12.80;99.90;;;;;;4988147;28;20453;-66
2022/03/30 12:39:20;;;;;;;9.27;8.40;;;12.80;99.90;;;;;;4984292;28;20540;-68
2022/03/30 12:42:01;;;;;;;9.13;5.73;;;12.80;99.90;;;;;;4995800;28;20408;-71
2022/03/30 12:44:36;;;;;;;12.40;6.40;;;12.80;99.90;;;;;;4994793;28;20400;-68
2022/03/30 12:47:03;;;;;;;7.50;6.53;;;12.70;99.90;;;;;;4995850;28;20494;-68
2022/03/30 12:49:38;;;;;;;10.40;6.27;;;12.70;99.90;;;;;;4995057;28;20432;-68
2022/03/30 12:52:05;;;;;;;8.87;6.13;;;12.60;99.90;;;;;;4997702;28;20740;-67
2022/03/30 12:54:31;;;;;;;8.23;7.37;;;12.50;99.90;;;;;;4997499;28;20498;-68